< < Back
Terminal Aerodrome Forecast


Current Version              Previous Versions:   1  2  3  4  5  6  7  8  9  

Terminal Aerodrome Forecast

684
FTUS42 KFFC 280333 AAA
TAFCSG
TAF AMD
KCSG 280333Z 2804/2824 04005KT P6SM BKN200
     FM280600 07005KT P6SM BKN200
     FM281500 10010KT P6SM SCT050 BKN120
     FM281800 11011KT P6SM SCT025 BKN050 PROB30 2818/2822 6SM -RA BR
      BKN025
     FM282200 12009KT 6SM -RA BR OVC025=

Latest METAR

879
SAUS70 KWBC 281900 RRA
MTRCSG
METAR KCSG 281851Z 14009G16KT 10SM BKN045 23/13 A2984 RMK AO2 SLP101
T02280128


USA.gov is the U.S. government's official web portal to all federal, state and local government web resources and services.